createdAt,value
2022-09-23T00:01:20.049Z,29.90
2022-09-23T00:03:58.331Z,32.70
2022-09-23T00:06:27.523Z,23.60
2022-09-23T00:08:55.645Z,26.00
2022-09-23T00:11:27.655Z,23.50
2022-09-23T00:13:56.431Z,27.00
2022-09-23T00:16:25.454Z,25.00
2022-09-23T00:18:53.081Z,25.70
2022-09-23T00:21:21.511Z,26.90
2022-09-23T00:23:49.513Z,30.10
2022-09-23T00:26:18.357Z,25.00
2022-09-23T00:28:46.570Z,25.70
2022-09-23T00:31:15.478Z,25.70
2022-09-23T00:33:43.249Z,23.00
2022-09-23T00:36:12.327Z,26.70
2022-09-23T00:38:40.039Z,25.20
2022-09-23T00:41:07.566Z,30.50
2022-09-23T00:43:39.830Z,26.20
2022-09-23T00:46:08.834Z,23.50
2022-09-23T00:48:38.937Z,27.70
2022-09-23T00:51:07.589Z,22.40
2022-09-23T00:53:35.697Z,25.60
2022-09-23T00:56:07.042Z,27.60
2022-09-23T00:58:36.656Z,25.80
2022-09-23T01:01:05.385Z,25.00
2022-09-23T01:03:33.719Z,28.90
2022-09-23T01:06:01.381Z,22.20
2022-09-23T01:08:29.244Z,22.90
2022-09-23T01:11:02.960Z,26.70
2022-09-23T01:13:34.303Z,25.00
2022-09-23T01:16:05.954Z,27.80
2022-09-23T01:18:38.716Z,27.40
2022-09-23T01:21:14.763Z,24.80
2022-09-23T01:24:02.129Z,27.90
2022-09-23T01:26:40.111Z,27.60
2022-09-23T01:29:23.277Z,26.50
2022-09-23T01:31:54.151Z,25.40
2022-09-23T01:34:24.663Z,26.60
2022-09-23T01:36:55.430Z,26.80
2022-09-23T01:39:27.355Z,26.40
2022-09-23T01:41:58.844Z,28.00
2022-09-23T01:44:30.778Z,29.80
2022-09-23T01:47:02.258Z,28.20
2022-09-23T01:49:33.624Z,33.50
2022-09-23T01:52:06.754Z,28.00
2022-09-23T01:54:38.218Z,32.60
2022-09-23T01:57:07.931Z,29.50
2022-09-23T01:59:37.878Z,30.80
2022-09-23T02:02:09.094Z,27.10
2022-09-23T02:04:40.092Z,28.80
2022-09-23T02:07:09.871Z,30.10
2022-09-23T02:09:42.258Z,33.00
2022-09-23T02:12:12.380Z,29.40
2022-09-23T02:14:42.787Z,31.50
2022-09-23T02:17:12.698Z,28.10
2022-09-23T02:19:42.810Z,29.80
2022-09-23T02:22:14.129Z,32.80
2022-09-23T02:24:42.130Z,32.30
2022-09-23T02:27:15.116Z,33.10
2022-09-23T02:29:49.020Z,30.40
2022-09-23T02:32:20.057Z,36.30
2022-09-23T02:34:53.355Z,32.20
2022-09-23T02:37:24.906Z,30.90
2022-09-23T02:39:57.477Z,34.50
2022-09-23T02:42:27.085Z,36.70
2022-09-23T02:44:55.566Z,32.30
2022-09-23T02:47:24.742Z,36.00
2022-09-23T02:49:55.749Z,35.90
2022-09-23T02:52:24.489Z,39.60
2022-09-23T02:54:52.370Z,39.20
2022-09-23T02:57:20.534Z,36.20
2022-09-23T02:59:50.038Z,34.80
2022-09-23T03:02:27.811Z,38.10
2022-09-23T03:05:03.369Z,39.60
2022-09-23T03:07:35.896Z,38.70
2022-09-23T03:10:07.665Z,40.40
2022-09-23T03:12:39.270Z,39.60
2022-09-23T03:15:14.702Z,41.70
2022-09-23T03:17:44.257Z,37.60
2022-09-23T03:20:14.799Z,39.20
2022-09-23T03:22:45.344Z,40.40
2022-09-23T03:25:15.796Z,39.50
2022-09-23T03:27:45.130Z,44.60
2022-09-23T03:30:13.575Z,44.70
2022-09-23T03:32:43.556Z,43.10
2022-09-23T03:35:11.773Z,41.90
2022-09-23T03:37:41.939Z,36.60
2022-09-23T03:40:12.874Z,37.50
2022-09-23T03:42:40.892Z,39.30
2022-09-23T03:45:12.769Z,41.10
2022-09-23T03:47:41.745Z,41.80
2022-09-23T03:50:12.986Z,37.40
2022-09-23T03:52:40.861Z,45.80
2022-09-23T03:55:09.599Z,40.70
2022-09-23T03:57:37.719Z,40.80
2022-09-23T04:00:07.034Z,41.30
2022-09-23T04:02:41.095Z,44.50
2022-09-23T04:05:09.507Z,49.00
2022-09-23T04:07:37.286Z,41.80
2022-09-23T04:10:06.570Z,45.10
2022-09-23T04:12:34.537Z,40.10
2022-09-23T04:15:02.503Z,42.80
2022-09-23T04:17:30.572Z,38.00
2022-09-23T04:19:58.336Z,42.80
2022-09-23T04:22:26.098Z,44.70
2022-09-23T04:24:54.271Z,42.10
2022-09-23T04:27:21.986Z,39.40
2022-09-23T04:29:49.596Z,40.90
2022-09-23T04:32:17.462Z,40.80
2022-09-23T04:34:45.227Z,41.20
2022-09-23T04:37:12.885Z,46.40
2022-09-23T04:39:40.600Z,36.20
2022-09-23T04:42:08.518Z,43.60
2022-09-23T04:44:36.133Z,45.40
2022-09-23T04:47:04.614Z,42.70
2022-09-23T04:49:33.358Z,43.10
2022-09-23T04:52:02.547Z,38.20
2022-09-23T04:54:31.122Z,41.20
2022-09-23T04:56:59.092Z,42.50
2022-09-23T04:59:26.756Z,37.50
2022-09-23T05:01:54.823Z,36.30
2022-09-23T05:04:22.588Z,44.20
2022-09-23T05:06:50.146Z,38.50
2022-09-23T05:09:18.329Z,39.10
2022-09-23T05:11:46.156Z,39.30
2022-09-23T05:14:13.859Z,40.30
2022-09-23T05:16:41.791Z,42.40
2022-09-23T05:19:09.689Z,47.30
2022-09-23T05:21:38.670Z,45.30
2022-09-23T05:24:07.052Z,42.60
2022-09-23T05:26:34.810Z,40.40
2022-09-23T05:29:02.379Z,38.70
2022-09-23T05:31:30.648Z,38.00
2022-09-23T05:33:59.852Z,38.60
2022-09-23T05:36:27.865Z,38.50
2022-09-23T05:38:57.005Z,41.30
2022-09-23T05:41:25.495Z,39.60
2022-09-23T05:43:53.658Z,43.80
2022-09-23T05:46:22.605Z,38.60
2022-09-23T05:48:50.806Z,41.40
2022-09-23T05:51:19.721Z,38.60
2022-09-23T05:53:48.306Z,38.70
2022-09-23T05:56:17.498Z,36.60
2022-09-23T05:58:45.019Z,36.00
2022-09-23T06:01:14.566Z,40.80
2022-09-23T06:03:42.532Z,40.80
2022-09-23T06:06:13.943Z,44.30
2022-09-23T06:08:42.052Z,40.60
2022-09-23T06:11:11.351Z,48.10
2022-09-23T06:13:39.422Z,39.30
2022-09-23T06:16:07.794Z,42.70
2022-09-23T06:18:35.847Z,40.30
2022-09-23T06:21:03.734Z,40.00
2022-09-23T06:23:31.745Z,44.40
2022-09-23T06:26:03.977Z,41.60
2022-09-23T06:28:32.865Z,33.80
2022-09-23T06:31:02.866Z,45.80
2022-09-23T06:33:36.810Z,42.20
2022-09-23T06:36:06.085Z,40.20
2022-09-23T06:38:34.016Z,39.60
2022-09-23T06:41:02.630Z,39.90
2022-09-23T06:43:30.814Z,40.80
2022-09-23T06:45:59.396Z,43.60
2022-09-23T06:48:27.775Z,39.80
2022-09-23T06:50:58.444Z,46.50
2022-09-23T06:53:26.365Z,41.20
2022-09-23T06:55:58.355Z,39.80
2022-09-23T06:58:26.462Z,48.50
2022-09-23T07:00:54.674Z,38.60
2022-09-23T07:03:22.203Z,39.70
2022-09-23T07:05:54.039Z,39.50
2022-09-23T07:08:22.334Z,38.90
2022-09-23T07:10:52.083Z,43.70
2022-09-23T07:13:20.491Z,38.20
2022-09-23T07:15:52.346Z,36.00
2022-09-23T07:18:23.361Z,40.20
2022-09-23T07:20:51.126Z,40.10
2022-09-23T07:23:18.718Z,38.50
2022-09-23T07:25:49.755Z,33.40
2022-09-23T07:28:17.388Z,37.00
2022-09-23T07:30:55.660Z,37.80
2022-09-23T07:33:32.474Z,34.50
2022-09-23T07:36:03.921Z,35.10
2022-09-23T07:38:32.596Z,36.30
2022-09-23T07:41:04.359Z,31.50
2022-09-23T07:43:32.947Z,34.00
2022-09-23T07:46:02.544Z,28.30
2022-09-23T07:48:34.080Z,29.60
2022-09-23T07:51:06.676Z,29.50
2022-09-23T07:53:34.776Z,32.50
2022-09-23T07:56:05.995Z,30.60
2022-09-23T07:58:34.757Z,34.20
2022-09-23T08:01:03.408Z,28.10
2022-09-23T08:03:31.533Z,28.20
2022-09-23T08:06:09.586Z,33.90
2022-09-23T08:08:39.897Z,32.20
2022-09-23T08:11:09.468Z,30.30
2022-09-23T08:13:37.916Z,28.10
2022-09-23T08:16:06.320Z,32.20
2022-09-23T08:18:34.600Z,26.40
2022-09-23T08:21:02.992Z,23.30
2022-09-23T08:23:33.059Z,23.70
2022-09-23T08:26:02.726Z,23.60
2022-09-23T08:28:31.933Z,26.60
2022-09-23T08:31:00.420Z,28.90
2022-09-23T08:33:28.354Z,30.50
2022-09-23T08:36:00.160Z,28.10
2022-09-23T08:38:28.442Z,27.70
2022-09-23T08:41:06.736Z,26.10
2022-09-23T08:43:37.433Z,25.60
2022-09-23T08:46:08.719Z,30.90
2022-09-23T08:48:38.274Z,29.30
2022-09-23T08:51:07.492Z,24.80
2022-09-23T08:53:36.180Z,25.40
2022-09-23T08:56:05.152Z,24.10
2022-09-23T08:58:37.388Z,24.80
2022-09-23T09:01:10.113Z,24.00
2022-09-23T09:03:40.734Z,29.70
2022-09-23T09:06:12.218Z,28.70
2022-09-23T09:08:41.401Z,21.70
2022-09-23T09:11:11.961Z,23.10
2022-09-23T09:13:48.587Z,21.20
2022-09-23T09:16:48.294Z,21.80
2022-09-23T09:19:19.062Z,18.80
2022-09-23T09:21:48.949Z,20.00
2022-09-23T09:24:18.695Z,18.90
2022-09-23T09:26:46.721Z,16.60
2022-09-23T09:29:34.209Z,19.90
2022-09-23T09:32:11.786Z,14.70
2022-09-23T09:34:42.367Z,13.90
2022-09-23T09:37:14.331Z,20.00
2022-09-23T09:39:42.193Z,13.10
2022-09-23T09:42:13.823Z,11.10
2022-09-23T09:44:44.476Z,12.90
2022-09-23T09:47:21.911Z,12.20
2022-09-23T09:49:53.809Z,12.50
2022-09-23T09:52:22.688Z,10.20
2022-09-23T09:54:51.356Z,11.30
2022-09-23T09:57:24.951Z,11.40
2022-09-23T10:02:23.834Z,12.80
2022-09-23T10:04:56.475Z,13.90
2022-09-23T10:07:25.784Z,24.60
2022-09-23T10:09:55.785Z,13.20
2022-09-23T10:12:26.990Z,12.30
2022-09-23T10:14:56.455Z,11.90
2022-09-23T10:17:32.886Z,13.10
2022-09-23T10:20:02.261Z,10.80
2022-09-23T10:22:33.479Z,11.40
2022-09-23T10:25:03.378Z,14.40
2022-09-23T10:27:32.517Z,10.50
2022-09-23T10:30:02.328Z,8.30
2022-09-23T10:32:31.834Z,12.00
2022-09-23T10:35:03.491Z,7.90
2022-09-23T10:37:33.231Z,10.70
2022-09-23T10:40:29.755Z,13.50
2022-09-23T10:43:21.629Z,10.70
2022-09-23T10:46:07.923Z,10.10
2022-09-23T10:48:44.305Z,9.60
2022-09-23T10:51:15.304Z,7.00
2022-09-23T10:53:49.369Z,7.40
2022-09-23T10:56:22.725Z,6.80
2022-09-23T10:58:59.969Z,9.60
2022-09-23T11:01:33.535Z,10.20
2022-09-23T11:04:06.719Z,8.10
2022-09-23T11:06:41.575Z,7.80
2022-09-23T11:09:14.981Z,6.60
2022-09-23T11:11:48.795Z,8.70
2022-09-23T11:14:29.459Z,8.00
2022-09-23T11:17:14.322Z,7.70
2022-09-23T11:19:57.866Z,9.00
2022-09-23T11:25:16.714Z,7.40
2022-09-23T11:27:53.372Z,7.50
2022-09-23T11:30:21.817Z,8.20
2022-09-23T11:33:05.426Z,6.30
2022-09-23T11:35:36.517Z,7.90
2022-09-23T11:38:07.203Z,5.90
2022-09-23T11:40:36.310Z,5.40
2022-09-23T11:43:07.140Z,4.90
2022-09-23T11:45:37.160Z,5.50
2022-09-23T11:48:06.151Z,5.40
2022-09-23T11:50:36.367Z,5.50
2022-09-23T11:53:08.633Z,4.80
2022-09-23T11:55:49.595Z,7.10
2022-09-23T11:58:25.738Z,6.50
2022-09-23T12:01:00.895Z,8.30
2022-09-23T12:37:24.387Z,6.20
2022-09-23T12:39:52.353Z,5.30
2022-09-23T12:42:22.025Z,6.00
2022-09-23T12:44:50.719Z,4.70
2022-09-23T12:47:36.639Z,4.00
2022-09-23T12:50:34.301Z,5.40
2022-09-23T12:53:16.094Z,4.30
2022-09-23T12:55:46.487Z,3.90
2022-09-23T12:58:28.387Z,4.50
2022-09-23T13:01:07.002Z,4.70
2022-09-23T13:03:53.329Z,4.40
2022-09-23T13:06:48.637Z,4.30
2022-09-23T13:09:18.357Z,4.80
2022-09-23T13:11:47.487Z,4.10
2022-09-23T13:14:18.771Z,4.70
2022-09-23T13:16:47.306Z,3.80
2022-09-23T13:19:38.539Z,3.80
2022-09-23T13:22:08.384Z,4.30
2022-09-23T13:24:39.688Z,4.40
2022-09-23T13:27:13.083Z,5.30
2022-09-23T13:29:43.097Z,6.10
2022-09-23T13:32:12.496Z,5.20
2022-09-23T13:34:41.145Z,7.10
2022-09-23T13:37:22.040Z,4.90
2022-09-23T13:39:50.616Z,4.30
2022-09-23T13:42:21.229Z,5.00
2022-09-23T13:44:48.990Z,5.30
2022-09-23T13:47:16.555Z,5.40
2022-09-23T13:49:47.576Z,5.80
2022-09-23T13:52:24.085Z,5.40
2022-09-23T13:54:52.229Z,5.80
2022-09-23T13:57:25.875Z,7.00
2022-09-23T13:59:53.906Z,4.90
2022-09-23T14:02:25.044Z,5.40
2022-09-23T14:04:55.985Z,5.40
2022-09-23T14:07:24.468Z,5.50
2022-09-23T14:09:54.484Z,6.60
2022-09-23T14:12:22.368Z,4.90
2022-09-23T14:14:51.589Z,6.10
2022-09-23T14:17:20.951Z,5.60
2022-09-23T14:19:49.330Z,5.20
2022-09-23T14:22:24.472Z,4.30
2022-09-23T14:24:52.539Z,5.50
2022-09-23T14:27:25.032Z,4.60
2022-09-23T14:29:53.265Z,6.10
2022-09-23T14:32:23.637Z,4.70
2022-09-23T14:34:52.218Z,5.70
2022-09-23T14:37:40.031Z,5.60
2022-09-23T14:40:12.470Z,4.70
2022-09-23T14:42:42.828Z,6.90
2022-09-23T14:45:13.584Z,5.30
2022-09-23T14:47:43.709Z,4.30
2022-09-23T14:50:34.067Z,6.40
2022-09-23T14:53:02.554Z,9.40
2022-09-23T14:55:31.344Z,4.80
2022-09-23T14:58:04.540Z,5.40
2022-09-23T15:00:32.916Z,4.70
2022-09-23T15:03:01.514Z,6.00
2022-09-23T15:05:38.840Z,5.60
2022-09-23T15:08:07.258Z,5.80
2022-09-23T15:10:37.497Z,6.80
2022-09-23T15:13:07.036Z,4.60
2022-09-23T15:15:35.676Z,5.10
2022-09-23T15:18:04.362Z,4.00
2022-09-23T15:20:32.632Z,6.00
2022-09-23T15:23:01.224Z,5.00
2022-09-23T15:25:32.106Z,4.20
2022-09-23T15:28:01.919Z,5.90
2022-09-23T15:30:31.472Z,5.90
2022-09-23T15:33:00.071Z,4.70
2022-09-23T15:35:28.740Z,4.80
2022-09-23T15:38:02.126Z,6.10
2022-09-23T15:40:31.793Z,5.90
2022-09-23T15:43:02.102Z,5.20
2022-09-23T15:45:32.983Z,5.30
2022-09-23T15:48:05.619Z,5.20
2022-09-23T15:50:34.933Z,5.30
2022-09-23T15:53:03.260Z,4.70
2022-09-23T15:55:31.561Z,7.10
2022-09-23T15:57:59.918Z,5.60
2022-09-23T16:00:27.878Z,5.30
2022-09-23T16:02:55.373Z,7.70
2022-09-23T16:05:26.179Z,4.70
2022-09-23T16:07:53.933Z,7.00
2022-09-23T16:10:24.054Z,5.10
2022-09-23T16:12:52.647Z,6.60
2022-09-23T16:15:21.771Z,6.90
2022-09-23T16:17:49.603Z,8.50
2022-09-23T16:20:17.789Z,6.30
2022-09-23T16:22:49.288Z,6.40
2022-09-23T16:25:17.603Z,8.00
2022-09-23T16:27:45.651Z,5.40
2022-09-23T16:30:13.487Z,6.80
2022-09-23T16:32:42.022Z,7.00
2022-09-23T16:35:10.289Z,5.50
2022-09-23T16:37:38.260Z,5.60
2022-09-23T16:40:09.284Z,5.70
2022-09-23T16:42:38.804Z,5.30
2022-09-23T16:45:07.999Z,7.00
2022-09-23T16:47:41.578Z,8.10
2022-09-23T16:50:09.923Z,8.80
2022-09-23T16:52:37.750Z,6.20
2022-09-23T16:55:08.359Z,6.00
2022-09-23T16:57:36.916Z,6.60
2022-09-23T17:00:24.794Z,6.60
2022-09-23T17:03:11.048Z,7.30
2022-09-23T17:05:38.749Z,7.00
2022-09-23T17:08:07.237Z,6.80
2022-09-23T17:10:34.834Z,7.60
2022-09-23T17:13:02.630Z,6.10
2022-09-23T17:15:30.770Z,10.40
2022-09-23T17:17:58.405Z,7.00
2022-09-23T17:20:26.270Z,9.00
2022-09-23T17:22:54.627Z,8.20
2022-09-23T17:25:22.194Z,10.80
2022-09-23T17:27:50.062Z,10.20
2022-09-23T17:30:18.440Z,8.60
2022-09-23T17:32:46.708Z,7.10
2022-09-23T17:35:14.471Z,10.90
2022-09-23T17:37:42.544Z,7.70
2022-09-23T17:40:10.896Z,11.30
2022-09-23T17:42:41.253Z,8.20
2022-09-23T17:45:12.288Z,6.70
2022-09-23T17:47:41.904Z,12.00
2022-09-23T17:50:10.490Z,10.10
2022-09-23T17:52:38.302Z,8.80
2022-09-23T17:55:07.549Z,9.80
2022-09-23T17:57:35.677Z,7.60
2022-09-23T18:00:03.534Z,8.60
2022-09-23T18:02:39.848Z,6.50
2022-09-23T18:05:08.422Z,6.70
2022-09-23T18:07:36.048Z,9.00
2022-09-23T18:10:04.973Z,8.80
2022-09-23T18:12:32.947Z,12.70
2022-09-23T18:15:00.911Z,7.30
2022-09-23T18:17:28.810Z,8.50
2022-09-23T18:19:56.436Z,10.20
2022-09-23T18:22:24.315Z,12.90
2022-09-23T18:24:52.480Z,9.80
2022-09-23T18:27:20.364Z,10.30
2022-09-23T18:29:47.933Z,6.90
2022-09-23T18:32:16.103Z,10.10
2022-09-23T18:34:44.139Z,8.10
2022-09-23T18:37:16.072Z,10.50
2022-09-23T18:39:44.844Z,8.40
2022-09-23T18:42:12.552Z,10.10
2022-09-23T18:44:40.528Z,7.50
2022-09-23T18:47:28.875Z,9.60
2022-09-23T18:50:14.654Z,12.90
2022-09-23T18:52:43.490Z,9.50
2022-09-23T18:55:11.309Z,12.00
2022-09-23T18:57:39.392Z,9.50
2022-09-23T19:00:09.350Z,6.50
2022-09-23T19:02:37.063Z,7.90
2022-09-23T19:05:05.443Z,12.80
2022-09-23T19:07:34.050Z,13.90
2022-09-23T19:10:01.988Z,8.70
2022-09-23T19:12:30.787Z,9.80
2022-09-23T19:14:58.882Z,7.30
2022-09-23T19:17:27.132Z,7.70
2022-09-23T19:19:55.186Z,9.80
2022-09-23T19:22:23.359Z,7.30
2022-09-23T19:24:51.735Z,10.50
2022-09-23T19:27:19.612Z,7.90
2022-09-23T19:29:47.548Z,8.20
2022-09-23T19:32:15.852Z,8.90
2022-09-23T19:34:43.794Z,7.90
2022-09-23T19:37:12.207Z,7.10
2022-09-23T19:39:40.471Z,7.40
2022-09-23T19:42:08.542Z,7.60
2022-09-23T19:44:39.555Z,6.80
2022-09-23T19:47:08.042Z,9.50
2022-09-23T19:49:36.342Z,6.40
2022-09-23T19:52:04.408Z,7.90
2022-09-23T19:54:32.378Z,7.70
2022-09-23T19:57:01.268Z,7.60
2022-09-23T19:59:29.568Z,8.10
2022-09-23T20:01:57.571Z,8.80
2022-09-23T20:04:25.688Z,11.70
2022-09-23T20:06:54.367Z,11.80
2022-09-23T20:09:22.130Z,16.00
2022-09-23T20:11:50.609Z,9.30
2022-09-23T20:14:19.506Z,7.90
2022-09-23T20:16:47.168Z,10.20
2022-09-23T20:19:15.235Z,12.90
2022-09-23T20:21:43.117Z,8.80
2022-09-23T20:24:11.900Z,13.10
2022-09-23T20:26:58.186Z,11.60
2022-09-23T20:29:26.152Z,10.10
2022-09-23T20:31:53.955Z,12.50
2022-09-23T20:34:22.195Z,9.80
2022-09-23T20:36:50.466Z,9.10
2022-09-23T20:39:18.126Z,8.40
2022-09-23T20:41:48.046Z,8.50
2022-09-23T20:44:16.321Z,12.30
2022-09-23T20:46:48.284Z,12.60
2022-09-23T20:49:17.074Z,8.10
2022-09-23T20:51:44.805Z,11.80
2022-09-23T20:54:12.706Z,9.10
2022-09-23T20:56:40.197Z,10.60
2022-09-23T20:59:09.333Z,8.40
2022-09-23T21:01:37.167Z,9.20
2022-09-23T21:04:05.724Z,9.30
2022-09-23T21:06:34.890Z,11.40
2022-09-23T21:28:02.233Z,9.80
2022-09-23T21:30:30.853Z,9.20
2022-09-23T21:32:59.028Z,7.10
2022-09-23T21:35:27.300Z,11.00
2022-09-23T21:37:55.058Z,12.10
2022-09-23T21:40:41.292Z,12.20
2022-09-23T21:43:09.332Z,18.30
2022-09-23T21:45:36.892Z,12.70
2022-09-23T21:48:05.064Z,14.70
2022-09-23T21:50:40.318Z,12.90
2022-09-23T21:53:08.440Z,12.30
2022-09-23T21:55:37.415Z,16.90
2022-09-23T21:58:04.916Z,19.40
2022-09-23T22:00:33.197Z,18.80
2022-09-23T22:03:01.369Z,17.80
2022-09-23T22:05:29.029Z,20.90
2022-09-23T22:07:56.906Z,18.80
2022-09-23T22:10:25.055Z,17.70
2022-09-23T22:12:52.731Z,23.00
2022-09-23T22:15:20.701Z,17.80
2022-09-23T22:17:48.970Z,17.70
2022-09-23T22:20:16.632Z,16.80
2022-09-23T22:22:44.303Z,16.40
2022-09-23T22:25:12.263Z,16.40
2022-09-23T22:28:00.005Z,18.30
2022-09-23T22:30:46.393Z,19.00
2022-09-23T22:33:15.305Z,19.90
2022-09-23T22:35:43.261Z,20.80
2022-09-23T22:38:11.451Z,16.40
2022-09-23T22:40:42.328Z,16.70
2022-09-23T22:43:10.338Z,17.70
2022-09-23T22:45:39.223Z,16.10
2022-09-23T22:48:06.992Z,16.10
2022-09-23T22:50:34.878Z,14.10
2022-09-23T22:53:03.640Z,17.70
2022-09-23T22:55:31.627Z,17.20
2022-09-23T22:58:15.274Z,18.30
2022-09-23T23:00:48.095Z,14.00
2022-09-23T23:03:19.983Z,13.00
2022-09-23T23:05:47.539Z,12.30
2022-09-23T23:08:17.056Z,11.50
2022-09-23T23:10:44.977Z,15.30
2022-09-23T23:13:12.990Z,13.00
2022-09-23T23:15:40.966Z,13.80
2022-09-23T23:18:08.722Z,13.60
2022-09-23T23:20:37.325Z,14.90
2022-09-23T23:23:07.962Z,13.60
2022-09-23T23:25:35.716Z,15.70
2022-09-23T23:28:05.201Z,17.80
2022-09-23T23:30:34.333Z,16.40
2022-09-23T23:33:02.272Z,15.80
2022-09-23T23:35:29.820Z,20.60
2022-09-23T23:37:57.788Z,25.20
2022-09-23T23:40:27.434Z,31.30
2022-09-23T23:42:55.261Z,25.30
2022-09-23T23:45:23.335Z,25.60
2022-09-23T23:47:51.208Z,25.80
2022-09-23T23:50:18.861Z,28.00
2022-09-23T23:52:46.929Z,25.50
2022-09-23T23:55:16.639Z,27.80
2022-09-23T23:57:44.199Z,23.10
